Blackdown, United Kingdom
Current Conditions -  °F | °C
As of 9:20 PM on Friday 21 Nov 2014 (Local Time) from EGLF Reporting Station
Haze Haze  
Wind Chill: 44°   Ceiling: 600
Heat Index: 48°   Visibility: 3mi
Dew Point: 46°   Wind: 9mph
Humidity: 93%   Direction: 130°SE
Pressure: 29.91"   Gusts: NA
Location:  51.29°N, 0.73°W
Report Text: EGLF 212120Z 13008KT 5000 BR BKN006 09/08 Q1013
Loading
Personal Weather Stations






























Interactive Weather Map New forecast layout! Learn more

10-Day Weather Forecast

Advertisements
Track Severe Weather on mobile